createdAt,value
2018-12-31T00:02:31.137Z,9.50
2018-12-31T00:05:03.618Z,9.67
2018-12-31T00:07:34.439Z,9.73
2018-12-31T00:10:23.951Z,10.33
2018-12-31T00:12:55.154Z,11.30
2018-12-31T00:15:25.757Z,9.90
2018-12-31T00:17:56.557Z,9.70
2018-12-31T00:20:27.365Z,10.80
2018-12-31T00:22:57.805Z,9.37
2018-12-31T00:25:28.286Z,10.07
2018-12-31T00:27:59.022Z,9.70
2018-12-31T00:30:29.465Z,8.63
2018-12-31T00:33:00.293Z,9.13
2018-12-31T00:35:30.739Z,8.63
2018-12-31T00:38:01.978Z,9.73
2018-12-31T00:40:32.426Z,10.13
2018-12-31T00:43:22.691Z,9.63
2018-12-31T00:45:53.455Z,10.07
2018-12-31T00:48:23.896Z,9.13
2018-12-31T00:50:54.371Z,10.13
2018-12-31T00:53:25.140Z,9.27
2018-12-31T00:56:15.421Z,10.70
2018-12-31T00:58:45.873Z,9.57
2018-12-31T01:01:16.307Z,9.80
2018-12-31T01:04:07.842Z,9.50
2018-12-31T01:06:38.293Z,9.10
2018-12-31T01:09:08.819Z,10.53
2018-12-31T01:11:39.266Z,9.80
2018-12-31T01:14:09.711Z,8.90
2018-12-31T01:16:40.181Z,9.40
2018-12-31T01:19:10.997Z,9.80
2018-12-31T01:21:41.504Z,9.63
2018-12-31T01:24:11.943Z,10.13
2018-12-31T01:27:01.891Z,10.97
2018-12-31T01:29:32.338Z,9.53
2018-12-31T01:32:04.499Z,11.23
2018-12-31T01:34:35.642Z,12.47
2018-12-31T01:37:06.093Z,11.40
2018-12-31T01:39:38.303Z,12.93
2018-12-31T01:42:09.222Z,14.07
2018-12-31T01:44:40.095Z,15.40
2018-12-31T01:47:10.566Z,14.60
2018-12-31T01:49:41.014Z,13.87
2018-12-31T01:52:11.878Z,12.73
2018-12-31T01:54:42.351Z,14.63
2018-12-31T01:57:13.130Z,14.67
2018-12-31T01:59:45.713Z,14.93
2018-12-31T02:05:31.854Z,13.83
2018-12-31T02:08:02.312Z,15.73
2018-12-31T02:10:32.761Z,16.27
2018-12-31T02:13:03.906Z,14.70
2018-12-31T02:15:34.355Z,15.00
2018-12-31T02:18:04.861Z,14.57
2018-12-31T02:20:35.706Z,15.73
2018-12-31T02:23:06.547Z,15.70
2018-12-31T02:25:37.016Z,16.50
2018-12-31T02:28:07.459Z,15.40
2018-12-31T02:30:37.943Z,15.27
2018-12-31T02:33:08.787Z,16.33
2018-12-31T02:35:39.228Z,15.03
2018-12-31T02:38:11.850Z,16.13
2018-12-31T02:40:42.615Z,18.13
2018-12-31T02:43:14.817Z,17.60
2018-12-31T02:45:45.267Z,21.77
2018-12-31T02:48:15.731Z,20.47
2018-12-31T02:50:46.521Z,19.53
2018-12-31T02:53:17.369Z,22.37
2018-12-31T02:55:48.275Z,22.90
2018-12-31T03:01:08.439Z,22.03
2018-12-31T03:03:39.251Z,20.50
2018-12-31T03:06:10.052Z,20.63
2018-12-31T03:09:18.846Z,20.53
2018-12-31T03:11:49.693Z,20.47
2018-12-31T03:14:20.536Z,22.30
2018-12-31T03:16:50.980Z,23.60
2018-12-31T03:19:21.458Z,23.80
2018-12-31T03:21:51.904Z,21.33
2018-12-31T03:24:42.211Z,23.33
2018-12-31T03:27:12.662Z,20.50
2018-12-31T03:32:59.288Z,20.67
2018-12-31T03:35:49.175Z,24.50
2018-12-31T03:38:19.663Z,22.33
2018-12-31T03:40:50.271Z,24.93
2018-12-31T03:43:20.725Z,22.87
2018-12-31T03:45:51.201Z,23.00
2018-12-31T03:48:21.643Z,23.07
2018-12-31T03:50:52.453Z,22.80
2018-12-31T03:53:42.400Z,23.53
2018-12-31T03:56:12.892Z,24.00
2018-12-31T03:58:43.692Z,21.93
2018-12-31T04:01:14.491Z,22.33
2018-12-31T04:03:45.143Z,20.63
2018-12-31T04:06:15.958Z,21.23
2018-12-31T04:08:46.883Z,20.73
2018-12-31T04:11:17.330Z,21.63
2018-12-31T04:13:47.776Z,20.50
2018-12-31T04:16:37.731Z,20.33
2018-12-31T04:19:08.235Z,17.27
2018-12-31T04:21:38.679Z,20.57
2018-12-31T04:24:09.134Z,19.13
2018-12-31T04:26:39.607Z,19.10
2018-12-31T04:29:10.054Z,17.97
2018-12-31T04:31:42.572Z,17.60
2018-12-31T04:34:32.854Z,19.40
2018-12-31T04:37:03.310Z,18.03
2018-12-31T04:39:35.520Z,17.43
2018-12-31T04:42:07.697Z,15.80
2018-12-31T04:44:38.170Z,17.00
2018-12-31T04:47:09.025Z,17.30
2018-12-31T04:49:39.463Z,15.20
2018-12-31T04:52:09.955Z,14.40
2018-12-31T04:54:40.399Z,16.70
2018-12-31T04:57:10.902Z,16.43
2018-12-31T04:59:41.375Z,15.47
2018-12-31T05:02:11.827Z,15.60
2018-12-31T05:04:42.475Z,16.37
2018-12-31T05:07:12.920Z,16.53
2018-12-31T05:09:43.684Z,17.77
2018-12-31T05:12:14.159Z,16.17
2018-12-31T05:14:44.608Z,16.70
2018-12-31T05:17:15.116Z,16.07
2018-12-31T05:19:45.562Z,14.90
2018-12-31T05:22:16.019Z,16.97
2018-12-31T05:25:06.077Z,15.30
2018-12-31T05:27:56.698Z,14.60
2018-12-31T05:30:27.206Z,13.43
2018-12-31T05:32:59.375Z,12.93
2018-12-31T05:35:29.847Z,13.50
2018-12-31T05:38:02.373Z,12.77
2018-12-31T05:40:32.819Z,13.80
2018-12-31T05:43:03.733Z,12.63
2018-12-31T05:45:34.927Z,13.10
2018-12-31T05:48:05.769Z,12.20
2018-12-31T05:50:36.245Z,13.20
2018-12-31T05:53:06.763Z,14.77
2018-12-31T05:55:37.605Z,14.30
2018-12-31T05:58:08.054Z,13.87
2018-12-31T06:00:42.093Z,12.53
2018-12-31T06:03:32.251Z,12.33
2018-12-31T06:06:02.770Z,12.50
2018-12-31T06:08:33.264Z,12.23
2018-12-31T06:11:04.084Z,12.20
2018-12-31T06:13:34.536Z,13.77
2018-12-31T06:16:05.012Z,13.47
2018-12-31T06:18:35.791Z,13.17
2018-12-31T06:21:06.444Z,13.10
2018-12-31T06:23:36.922Z,12.37
2018-12-31T06:26:07.335Z,12.43
2018-12-31T06:28:37.807Z,12.30
2018-12-31T06:31:10.330Z,13.20
2018-12-31T06:33:42.556Z,12.13
2018-12-31T06:36:32.850Z,11.43
2018-12-31T06:39:03.534Z,12.70
2018-12-31T06:41:33.977Z,12.97
2018-12-31T06:44:23.935Z,11.00
2018-12-31T06:47:13.863Z,12.27
2018-12-31T06:49:44.704Z,12.43
2018-12-31T06:52:15.164Z,13.10
2018-12-31T06:54:46.298Z,15.73
2018-12-31T06:57:16.795Z,12.50
2018-12-31T06:59:47.246Z,11.63
2018-12-31T07:02:18.112Z,10.47
2018-12-31T07:04:48.550Z,11.10
2018-12-31T07:07:37.934Z,10.60
2018-12-31T07:10:08.675Z,15.50
2018-12-31T07:12:39.124Z,13.97
2018-12-31T07:15:09.674Z,11.67
2018-12-31T07:17:40.119Z,9.17
2018-12-31T07:20:10.613Z,7.63
2018-12-31T07:22:41.057Z,6.57
2018-12-31T07:25:11.492Z,6.43
2018-12-31T07:27:42.329Z,6.13
2018-12-31T07:30:12.771Z,6.00
2018-12-31T07:33:02.704Z,5.63
2018-12-31T07:35:33.153Z,5.13
2018-12-31T07:38:03.678Z,5.23
2018-12-31T07:40:34.116Z,5.33
2018-12-31T07:43:04.557Z,5.37
2018-12-31T07:45:35.036Z,4.80
2018-12-31T07:48:05.471Z,4.93
2018-12-31T07:50:55.417Z,4.80
2018-12-31T07:53:26.156Z,4.67
2018-12-31T07:55:56.963Z,5.10
2018-12-31T07:58:27.452Z,5.27
2018-12-31T08:00:57.885Z,5.10
2018-12-31T08:03:28.321Z,5.90
2018-12-31T08:06:00.653Z,4.77
2018-12-31T08:08:32.800Z,5.70
2018-12-31T08:11:03.633Z,5.93
2018-12-31T08:13:34.116Z,5.53
2018-12-31T08:16:04.552Z,4.90
2018-12-31T08:18:35.338Z,4.87
2018-12-31T08:21:05.816Z,5.10
2018-12-31T08:23:36.251Z,4.93
2018-12-31T08:26:06.689Z,5.10
2018-12-31T08:28:37.633Z,4.30
2018-12-31T08:31:09.804Z,4.67
2018-12-31T08:33:40.242Z,4.37
2018-12-31T08:36:11.045Z,5.30
2018-12-31T08:38:41.484Z,3.67
2018-12-31T08:41:11.922Z,4.47
2018-12-31T08:43:42.805Z,4.57
2018-12-31T08:46:13.241Z,4.40
2018-12-31T08:48:43.679Z,4.70
2018-12-31T08:51:14.505Z,4.60
2018-12-31T08:53:45.759Z,4.37
2018-12-31T08:56:16.195Z,5.07
2018-12-31T08:58:47.075Z,5.47
2018-12-31T09:01:17.590Z,4.37
2018-12-31T09:03:48.321Z,4.40
2018-12-31T09:06:18.808Z,3.90
2018-12-31T09:08:49.277Z,4.47
2018-12-31T09:11:19.717Z,4.57
2018-12-31T09:13:50.493Z,4.10
2018-12-31T09:16:21.088Z,4.57
2018-12-31T09:18:51.524Z,4.27
2018-12-31T09:21:22.322Z,4.90
2018-12-31T09:23:54.802Z,6.00
2018-12-31T09:26:25.627Z,5.40
2018-12-31T09:28:56.113Z,6.93
2018-12-31T09:31:26.570Z,5.53
2018-12-31T09:33:57.002Z,5.37
2018-12-31T09:36:47.254Z,5.63
2018-12-31T09:39:19.413Z,5.23
2018-12-31T09:41:49.845Z,4.93
2018-12-31T09:44:20.340Z,4.57
2018-12-31T09:46:50.783Z,5.27
2018-12-31T09:49:21.621Z,5.37
2018-12-31T09:51:52.450Z,5.70
2018-12-31T09:54:22.902Z,5.57
2018-12-31T09:56:53.343Z,6.63
2018-12-31T09:59:25.540Z,5.50
2018-12-31T10:01:57.692Z,5.47
2018-12-31T10:04:30.233Z,6.03
2018-12-31T10:09:55.835Z,6.13
2018-12-31T10:12:45.789Z,5.90
2018-12-31T10:15:35.697Z,6.23
2018-12-31T10:18:06.190Z,5.97
2018-12-31T10:20:36.621Z,6.83
2018-12-31T10:23:07.050Z,6.43
2018-12-31T10:25:56.997Z,6.83
2018-12-31T10:28:27.735Z,7.07
2018-12-31T10:31:00.276Z,6.73
2018-12-31T10:33:30.760Z,6.80
2018-12-31T10:36:01.546Z,6.80
2018-12-31T10:38:31.985Z,7.20
2018-12-31T10:41:02.482Z,6.60
2018-12-31T10:43:33.245Z,6.93
2018-12-31T10:46:03.692Z,7.37
2018-12-31T10:48:34.599Z,6.67
2018-12-31T10:51:05.038Z,6.60
2018-12-31T10:53:35.785Z,7.83
2018-12-31T10:56:06.583Z,6.90
2018-12-31T10:58:37.026Z,6.93
2018-12-31T11:01:07.470Z,6.83
2018-12-31T11:03:38.309Z,7.93
2018-12-31T11:06:09.055Z,7.27
2018-12-31T11:08:39.521Z,6.33
2018-12-31T11:14:05.873Z,7.13
2018-12-31T11:16:36.362Z,6.30
2018-12-31T11:19:26.272Z,6.60
2018-12-31T11:21:57.073Z,6.63
2018-12-31T11:24:27.902Z,7.43
2018-12-31T11:29:47.704Z,5.77
2018-12-31T11:32:37.017Z,5.60
2018-12-31T11:35:07.905Z,5.73
2018-12-31T11:37:38.342Z,6.30
2018-12-31T11:40:28.013Z,6.10
2018-12-31T11:42:58.841Z,6.13
2018-12-31T11:45:48.268Z,6.17
2018-12-31T11:48:18.715Z,7.10
2018-12-31T11:51:08.077Z,5.83
2018-12-31T11:53:38.871Z,6.60
2018-12-31T11:56:09.707Z,7.10
2018-12-31T11:58:40.974Z,7.20
2018-12-31T12:01:11.409Z,6.50
2018-12-31T12:03:43.563Z,6.73
2018-12-31T12:06:14.041Z,6.83
2018-12-31T12:08:44.922Z,6.30
2018-12-31T12:11:16.326Z,6.73
2018-12-31T12:13:46.818Z,7.10
2018-12-31T12:16:17.254Z,6.77
2018-12-31T12:21:37.351Z,6.63
2018-12-31T12:24:07.794Z,7.07
2018-12-31T12:26:38.569Z,6.47
2018-12-31T12:29:09.028Z,6.23
2018-12-31T12:31:41.176Z,6.60
2018-12-31T12:34:31.415Z,5.70
2018-12-31T12:37:40.349Z,6.43
2018-12-31T12:40:30.301Z,6.37
2018-12-31T12:43:00.728Z,6.07
2018-12-31T12:45:50.688Z,6.93
2018-12-31T12:48:21.120Z,6.77
2018-12-31T12:50:51.940Z,6.17
2018-12-31T12:53:22.745Z,6.10
2018-12-31T12:55:53.179Z,6.53
2018-12-31T12:58:43.134Z,5.70
2018-12-31T13:01:33.034Z,6.00
2018-12-31T13:04:25.744Z,6.23
2018-12-31T13:07:15.950Z,5.80
2018-12-31T13:10:06.469Z,6.57
2018-12-31T13:12:36.905Z,5.97
2018-12-31T13:15:07.492Z,8.33
2018-12-31T13:17:57.442Z,7.83
2018-12-31T13:20:47.748Z,7.80
2018-12-31T13:23:18.589Z,9.10
2018-12-31T13:25:49.034Z,9.67
2018-12-31T13:28:39.000Z,10.33
2018-12-31T13:31:09.836Z,9.67
2018-12-31T13:33:42.304Z,9.07
2018-12-31T13:36:32.259Z,9.87
2018-12-31T13:42:11.929Z,9.10
2018-12-31T13:44:43.110Z,10.67
2018-12-31T13:47:13.564Z,10.33
2018-12-31T13:53:19.541Z,9.73
2018-12-31T13:55:49.987Z,9.57
2018-12-31T13:58:39.952Z,9.47
2018-12-31T14:01:29.857Z,10.07
2018-12-31T14:04:00.666Z,10.47
2018-12-31T14:06:31.507Z,11.50
2018-12-31T14:09:02.276Z,11.50
2018-12-31T14:11:33.288Z,11.90
2018-12-31T14:16:54.451Z,10.73
2018-12-31T14:19:25.558Z,10.87
2018-12-31T14:21:56.330Z,11.27
2018-12-31T14:24:46.286Z,11.17
2018-12-31T14:27:16.739Z,11.23
2018-12-31T14:29:47.183Z,11.37
2018-12-31T14:32:37.628Z,11.10
2018-12-31T14:35:09.896Z,11.40
2018-12-31T14:37:59.887Z,10.57
2018-12-31T14:40:50.144Z,10.40
2018-12-31T14:43:40.091Z,11.57
2018-12-31T14:46:30.009Z,11.80
2018-12-31T14:49:00.831Z,10.97
2018-12-31T14:51:31.284Z,12.13
2018-12-31T14:54:21.248Z,12.07
2018-12-31T14:56:52.078Z,11.90
2018-12-31T14:59:43.775Z,11.90
2018-12-31T15:02:14.534Z,11.57
2018-12-31T15:05:23.601Z,11.20
2018-12-31T15:07:54.053Z,11.17
2018-12-31T15:10:44.017Z,10.60
2018-12-31T15:13:33.931Z,10.83
2018-12-31T15:16:23.922Z,10.77
2018-12-31T15:19:14.213Z,10.07
2018-12-31T15:21:44.713Z,11.13
2018-12-31T15:24:15.167Z,10.43
2018-12-31T15:26:45.615Z,10.43
2018-12-31T15:29:17.827Z,10.10
2018-12-31T15:31:50.317Z,11.50
2018-12-31T15:34:42.598Z,11.13
2018-12-31T15:37:14.755Z,10.97
2018-12-31T15:39:45.204Z,11.43
2018-12-31T15:42:36.862Z,11.27
2018-12-31T15:45:26.787Z,11.40
2018-12-31T15:48:16.823Z,11.50
2018-12-31T15:50:47.645Z,11.43
2018-12-31T15:53:18.394Z,11.40
2018-12-31T15:56:10.026Z,11.33
2018-12-31T15:58:59.987Z,13.20
2018-12-31T16:04:20.296Z,12.80
2018-12-31T16:07:10.215Z,11.57
2018-12-31T16:10:00.177Z,12.60
2018-12-31T16:12:50.098Z,12.50
2018-12-31T16:15:40.061Z,13.73
2018-12-31T16:18:10.546Z,13.97
2018-12-31T16:21:02.202Z,14.27
2018-12-31T16:23:34.364Z,15.13
2018-12-31T16:26:24.320Z,13.60
2018-12-31T16:28:54.943Z,12.33
2018-12-31T16:31:25.387Z,14.10
2018-12-31T16:34:15.338Z,19.03
2018-12-31T16:36:46.201Z,24.00
2018-12-31T16:39:16.655Z,17.07
2018-12-31T16:44:42.388Z,12.83
2018-12-31T16:50:28.199Z,12.40
2018-12-31T16:52:58.697Z,14.20
2018-12-31T16:55:48.608Z,13.17
2018-12-31T16:58:38.567Z,13.47
2018-12-31T17:01:28.491Z,12.80
2018-12-31T17:03:58.991Z,13.20
2018-12-31T17:09:18.960Z,12.90
2018-12-31T17:12:09.013Z,12.90
2018-12-31T17:14:58.978Z,12.70
2018-12-31T17:17:29.428Z,13.27
2018-12-31T17:19:59.900Z,13.20
2018-12-31T17:22:30.715Z,13.70
2018-12-31T17:25:01.160Z,13.70
2018-12-31T17:27:51.118Z,13.47
2018-12-31T17:30:40.519Z,14.20
2018-12-31T17:33:11.015Z,12.53
2018-12-31T17:36:00.938Z,12.90
2018-12-31T17:38:31.828Z,13.13
2018-12-31T17:41:02.569Z,13.33
2018-12-31T17:43:52.850Z,13.30
2018-12-31T17:46:23.305Z,12.57
2018-12-31T17:49:14.973Z,14.20
2018-12-31T17:51:45.423Z,12.83
2018-12-31T17:54:15.873Z,13.73
2018-12-31T17:57:07.530Z,13.00
2018-12-31T17:59:37.979Z,13.33
2018-12-31T18:02:28.417Z,12.33
2018-12-31T18:05:17.834Z,12.90
2018-12-31T18:07:48.681Z,13.83
2018-12-31T18:13:33.494Z,12.03
2018-12-31T18:16:25.107Z,13.10
2018-12-31T18:18:55.599Z,13.60
2018-12-31T18:21:45.554Z,13.63
2018-12-31T18:24:17.750Z,14.57
2018-12-31T18:26:50.388Z,13.93
2018-12-31T18:29:22.603Z,14.33
2018-12-31T18:31:53.235Z,14.07
2018-12-31T18:34:24.058Z,13.87
2018-12-31T18:36:54.557Z,14.40
2018-12-31T18:39:25.004Z,14.67
2018-12-31T18:41:55.455Z,14.20
2018-12-31T18:44:26.070Z,13.67
2018-12-31T18:46:56.518Z,13.73
2018-12-31T18:49:27.353Z,14.37
2018-12-31T18:51:57.850Z,14.23
2018-12-31T18:57:39.167Z,14.57
2018-12-31T19:00:30.782Z,14.23
2018-12-31T19:03:03.346Z,17.10
2018-12-31T19:05:33.800Z,19.77
2018-12-31T19:08:04.345Z,15.87
2018-12-31T19:10:35.159Z,16.20
2018-12-31T19:13:05.930Z,17.57
2018-12-31T19:15:55.893Z,15.63
2018-12-31T19:18:26.337Z,17.43
2018-12-31T19:20:56.787Z,16.67
2018-12-31T19:23:27.675Z,16.37
2018-12-31T19:25:58.114Z,17.47
2018-12-31T19:28:28.557Z,16.30
2018-12-31T19:30:59.071Z,16.90
2018-12-31T19:33:29.835Z,16.80
2018-12-31T19:36:00.292Z,16.57
2018-12-31T19:38:50.247Z,16.50
2018-12-31T19:41:40.166Z,17.20
2018-12-31T19:44:30.131Z,17.27
2018-12-31T19:47:20.047Z,17.43
2018-12-31T19:49:50.549Z,16.93
2018-12-31T19:52:21.334Z,18.00
2018-12-31T19:54:51.779Z,19.00
2018-12-31T19:57:22.271Z,17.60
2018-12-31T19:59:54.444Z,20.20
2018-12-31T20:02:46.107Z,19.67
2018-12-31T20:05:16.556Z,19.70
2018-12-31T20:08:06.943Z,19.77
2018-12-31T20:10:37.801Z,18.13
2018-12-31T20:13:08.252Z,18.87
2018-12-31T20:15:38.759Z,18.60
2018-12-31T20:18:09.209Z,19.80
2018-12-31T20:20:40.033Z,22.27
2018-12-31T20:23:10.534Z,21.90
2018-12-31T20:26:00.480Z,22.10
2018-12-31T20:28:30.982Z,21.30
2018-12-31T20:31:20.900Z,21.37
2018-12-31T20:37:06.771Z,21.77
2018-12-31T20:39:37.623Z,24.07
2018-12-31T20:42:09.020Z,23.77
2018-12-31T20:44:39.855Z,23.10
2018-12-31T20:47:10.309Z,22.63
2018-12-31T20:49:40.768Z,24.37
2018-12-31T20:52:31.100Z,23.53
2018-12-31T20:55:01.939Z,25.93
2018-12-31T20:57:32.443Z,23.80
2018-12-31T21:00:22.359Z,24.73
2018-12-31T21:03:12.325Z,26.17
2018-12-31T21:06:02.248Z,25.27
2018-12-31T21:08:33.445Z,23.90
2018-12-31T21:11:03.889Z,24.93
2018-12-31T21:13:34.336Z,24.03
2018-12-31T21:16:05.618Z,22.93
2018-12-31T21:21:52.662Z,21.13
2018-12-31T21:24:23.816Z,19.97
2018-12-31T21:26:54.434Z,19.50
2018-12-31T21:29:24.889Z,19.50
2018-12-31T21:31:55.367Z,19.13
2018-12-31T21:34:25.818Z,19.17
2018-12-31T21:37:15.788Z,20.03
2018-12-31T21:39:58.964Z,21.27
2018-12-31T21:42:44.085Z,19.57
2018-12-31T21:45:22.240Z,19.23
2018-12-31T21:48:12.199Z,18.87
2018-12-31T21:50:43.066Z,21.80
2018-12-31T21:53:13.518Z,20.20
2018-12-31T21:55:43.993Z,19.20
2018-12-31T21:58:34.296Z,19.80
2018-12-31T22:01:04.792Z,20.47
2018-12-31T22:03:35.249Z,20.20
2018-12-31T22:06:26.923Z,19.33
2018-12-31T22:08:57.375Z,18.43
2018-12-31T22:11:47.315Z,19.93
2018-12-31T22:14:17.764Z,18.83
2018-12-31T22:16:48.506Z,19.03
2018-12-31T22:19:19.303Z,18.53
2018-12-31T22:21:49.749Z,17.30
2018-12-31T22:24:20.206Z,18.20
2018-12-31T22:26:52.788Z,16.10
2018-12-31T22:29:23.506Z,16.20
2018-12-31T22:31:54.359Z,15.30
2018-12-31T22:34:46.006Z,14.80
2018-12-31T22:37:16.571Z,15.03
2018-12-31T22:39:47.345Z,14.80
2018-12-31T22:42:39.367Z,15.13
2018-12-31T22:45:09.871Z,14.43
2018-12-31T22:47:42.066Z,15.67
2018-12-31T22:50:34.071Z,15.73
2018-12-31T22:53:04.531Z,17.20
2018-12-31T22:55:34.982Z,16.27
2018-12-31T22:58:05.690Z,17.07
2018-12-31T23:06:43.400Z,89.87
2018-12-31T23:09:15.903Z,38.57
2018-12-31T23:11:46.369Z,27.27
2018-12-31T23:14:16.837Z,111.20
2018-12-31T23:16:50.771Z,44.93
2018-12-31T23:19:21.227Z,53.27
2018-12-31T23:22:13.209Z,67.20
2018-12-31T23:24:43.747Z,255.87
2018-12-31T23:27:14.280Z,177.83
2018-12-31T23:29:45.503Z,59.97
2018-12-31T23:32:15.975Z,48.20
2018-12-31T23:38:02.825Z,51.83
2018-12-31T23:40:33.690Z,39.23
2018-12-31T23:43:06.537Z,41.43
2018-12-31T23:45:55.796Z,39.67
2018-12-31T23:48:26.674Z,37.07
2018-12-31T23:50:57.170Z,32.03
2018-12-31T23:53:27.626Z,27.43
2018-12-31T23:55:58.476Z,25.30
2018-12-31T23:58:47.935Z,25.57
